createdAt,value
2023-04-04T00:00:22.998Z,1.20
2023-04-04T00:01:54.946Z,1.19
2023-04-04T00:03:27.772Z,1.19
2023-04-04T00:04:59.650Z,1.18
2023-04-04T00:06:31.550Z,1.18
2023-04-04T00:08:04.005Z,1.16
2023-04-04T00:09:36.198Z,1.15
2023-04-04T00:11:08.050Z,1.14
2023-04-04T00:12:39.882Z,1.12
2023-04-04T00:14:11.840Z,1.11
2023-04-04T00:15:43.636Z,1.11
2023-04-04T00:17:15.438Z,1.07
2023-04-04T00:18:47.225Z,1.06
2023-04-04T00:20:19.045Z,1.04
2023-04-04T00:21:51.216Z,1.01
2023-04-04T00:23:23.042Z,1.00
2023-04-04T00:24:54.943Z,0.98
2023-04-04T00:26:26.938Z,0.96
2023-04-04T00:28:01.302Z,0.93
2023-04-04T00:29:34.670Z,0.92
2023-04-04T00:31:07.770Z,0.89
2023-04-04T00:32:39.894Z,0.87
2023-04-04T00:34:11.877Z,0.86
2023-04-04T00:35:43.705Z,0.84
2023-04-04T00:37:15.894Z,0.83
2023-04-04T00:38:47.760Z,0.80
2023-04-04T00:40:19.856Z,0.79
2023-04-04T00:41:51.786Z,0.79
2023-04-04T00:43:23.737Z,0.77
2023-04-04T00:44:55.998Z,0.75
2023-04-04T00:46:29.542Z,0.75
2023-04-04T00:48:03.503Z,0.74
2023-04-04T00:49:35.802Z,0.72
2023-04-04T00:51:07.856Z,0.72
2023-04-04T00:52:39.764Z,0.71
2023-04-04T00:54:11.820Z,0.71
2023-04-04T00:55:44.063Z,0.71
2023-04-04T00:57:16.931Z,0.70
2023-04-04T00:58:48.874Z,0.70
2023-04-04T01:00:21.146Z,0.69
2023-04-04T01:01:52.996Z,0.69
2023-04-04T01:03:25.160Z,0.69
2023-04-04T01:04:57.026Z,0.69
2023-04-04T01:06:30.703Z,0.69
2023-04-04T01:08:02.756Z,0.70
2023-04-04T01:09:35.223Z,0.70
2023-04-04T01:11:07.492Z,0.71
2023-04-04T01:12:39.871Z,0.70
2023-04-04T01:14:11.899Z,0.71
2023-04-04T01:15:45.169Z,0.71
2023-04-04T01:17:17.327Z,0.71
2023-04-04T01:18:51.151Z,0.71
2023-04-04T01:20:26.984Z,0.71
2023-04-04T01:22:02.886Z,0.71
2023-04-04T01:24:11.556Z,0.67
2023-04-04T01:25:49.229Z,0.71
2023-04-04T01:27:21.779Z,0.70
2023-04-04T01:29:00.829Z,0.69
2023-04-04T01:30:36.007Z,0.67
2023-04-04T01:32:20.484Z,0.65
2023-04-04T01:34:05.197Z,0.65
2023-04-04T01:35:44.220Z,0.63
2023-04-04T01:37:28.264Z,0.61
2023-04-04T01:39:25.014Z,0.56
2023-04-04T01:41:02.892Z,0.57
2023-04-04T01:42:38.982Z,0.55
2023-04-04T01:44:11.720Z,0.53
2023-04-04T01:45:43.834Z,0.51
2023-04-04T01:47:18.040Z,0.49
2023-04-04T01:48:49.878Z,0.45
2023-04-04T01:50:26.787Z,0.43
2023-04-04T01:51:58.809Z,0.39
2023-04-04T01:53:31.513Z,0.35
2023-04-04T01:55:03.963Z,0.33
2023-04-04T01:56:36.180Z,0.28
2023-04-04T01:58:08.604Z,0.24
2023-04-04T01:59:40.607Z,0.20
2023-04-04T02:01:12.979Z,0.15
2023-04-04T02:02:44.958Z,0.12
2023-04-04T02:04:17.374Z,0.08
2023-04-04T02:05:49.613Z,0.05
2023-04-04T02:07:21.476Z,0.01
2023-04-04T02:08:53.959Z,-0.03
2023-04-04T02:10:26.040Z,-0.08
2023-04-04T02:11:57.874Z,-0.10
2023-04-04T02:13:29.718Z,-0.15
2023-04-04T02:15:03.840Z,-0.19
2023-04-04T02:16:35.721Z,-0.23
2023-04-04T02:18:07.586Z,-0.26
2023-04-04T02:19:39.526Z,-0.30
2023-04-04T02:21:11.334Z,-0.33
2023-04-04T02:22:43.127Z,-0.38
2023-04-04T02:24:14.975Z,-0.41
2023-04-04T02:25:46.792Z,-0.45
2023-04-04T02:27:18.586Z,-0.47
2023-04-04T02:28:50.410Z,-0.51
2023-04-04T02:30:22.220Z,-0.54
2023-04-04T02:31:55.424Z,-0.56
2023-04-04T02:33:27.359Z,-0.57
2023-04-04T02:34:59.540Z,-0.61
2023-04-04T02:36:31.622Z,-0.64
2023-04-04T02:38:03.752Z,-0.66
2023-04-04T02:39:43.884Z,-0.69
2023-04-04T02:41:15.719Z,-0.70
2023-04-04T02:42:47.564Z,-0.73
2023-04-04T02:44:19.586Z,-0.77
2023-04-04T02:45:53.895Z,-0.80
2023-04-04T02:47:28.805Z,-0.82
2023-04-04T02:49:02.153Z,-0.84
2023-04-04T02:50:34.863Z,-0.87
2023-04-04T02:52:08.450Z,-0.90
2023-04-04T02:53:44.494Z,-0.92
2023-04-04T02:55:27.262Z,-0.94
2023-04-04T02:56:59.164Z,-0.98
2023-04-04T02:58:34.941Z,-1.02
2023-04-04T03:00:07.656Z,-1.05
2023-04-04T03:01:40.054Z,-1.07
2023-04-04T03:03:12.090Z,-1.10
2023-04-04T03:04:48.638Z,-1.13
2023-04-04T03:06:20.488Z,-1.16
2023-04-04T03:07:58.382Z,-1.22
2023-04-04T03:09:31.582Z,-1.25
2023-04-04T03:11:03.560Z,-1.28
2023-04-04T03:12:35.656Z,-1.31
2023-04-04T03:14:08.542Z,-1.34
2023-04-04T03:15:44.095Z,-1.36
2023-04-04T03:17:20.424Z,-1.38
2023-04-04T03:18:52.315Z,-1.40
2023-04-04T03:20:26.605Z,-1.42
2023-04-04T03:21:58.416Z,-1.45
2023-04-04T03:23:30.227Z,-1.45
2023-04-04T03:25:03.743Z,-1.47
2023-04-04T03:26:35.570Z,-1.47
2023-04-04T03:28:10.139Z,-1.49
2023-04-04T03:29:42.393Z,-1.48
2023-04-04T03:31:15.209Z,-1.48
2023-04-04T03:32:47.906Z,-1.49
2023-04-04T03:34:19.848Z,-1.48
2023-04-04T03:35:51.664Z,-1.47
2023-04-04T03:37:23.840Z,-1.46
2023-04-04T03:38:55.791Z,-1.45
2023-04-04T03:40:27.720Z,-1.45
2023-04-04T03:41:59.519Z,-1.45
2023-04-04T03:43:32.781Z,-1.44
2023-04-04T03:45:04.777Z,-1.42
2023-04-04T03:46:38.658Z,-1.40
2023-04-04T03:48:11.448Z,-1.39
2023-04-04T03:49:44.866Z,-1.38
2023-04-04T03:51:23.847Z,-1.37
2023-04-04T03:52:55.693Z,-1.34
2023-04-04T03:54:28.469Z,-1.32
2023-04-04T03:56:00.641Z,-1.30
2023-04-04T03:57:32.922Z,-1.28
2023-04-04T03:59:04.877Z,-1.25
2023-04-04T04:00:36.703Z,-1.24
2023-04-04T04:02:08.600Z,-1.22
2023-04-04T04:03:40.673Z,-1.20
2023-04-04T04:05:12.818Z,-1.17
2023-04-04T04:06:44.608Z,-1.15
2023-04-04T04:08:16.777Z,-1.13
2023-04-04T04:09:48.574Z,-1.11
2023-04-04T04:11:20.351Z,-1.09
2023-04-04T04:12:52.175Z,-1.07
2023-04-04T04:14:23.975Z,-1.06
2023-04-04T04:15:57.435Z,-1.04
2023-04-04T04:17:29.851Z,-1.02
2023-04-04T04:19:02.606Z,-1.01
2023-04-04T04:20:42.797Z,-0.97
2023-04-04T04:22:14.844Z,-0.97
2023-04-04T04:23:48.635Z,-0.95
2023-04-04T04:25:20.637Z,-0.95
2023-04-04T04:27:08.302Z,-0.94
2023-04-04T04:28:41.044Z,-0.92
2023-04-04T04:30:17.606Z,-0.91
2023-04-04T04:31:52.632Z,-0.89
2023-04-04T04:33:31.979Z,-0.90
2023-04-04T04:35:08.952Z,-0.87
2023-04-04T04:36:42.892Z,-0.88
2023-04-04T04:38:28.911Z,-0.87
2023-04-04T04:40:02.092Z,-0.87
2023-04-04T04:42:03.488Z,-0.86
2023-04-04T04:43:37.161Z,-0.85
2023-04-04T04:45:09.458Z,-0.87
2023-04-04T04:46:43.418Z,-0.86
2023-04-04T04:48:19.573Z,-0.87
2023-04-04T04:49:55.749Z,-0.86
2023-04-04T04:51:39.024Z,-0.85
2023-04-04T04:53:11.668Z,-0.87
2023-04-04T04:54:44.023Z,-0.85
2023-04-04T04:56:15.868Z,-0.86
2023-04-04T04:57:49.589Z,-0.86
2023-04-04T04:59:26.537Z,-0.86
2023-04-04T05:01:01.769Z,-0.85
2023-04-04T05:02:41.177Z,-0.85
2023-04-04T05:04:13.571Z,-0.84
2023-04-04T05:05:53.623Z,-0.82
2023-04-04T05:07:25.496Z,-0.82
2023-04-04T05:08:58.766Z,-0.81
2023-04-04T05:10:39.385Z,-0.81
2023-04-04T05:12:12.933Z,-0.78
2023-04-04T05:13:49.294Z,-0.76
2023-04-04T05:15:22.640Z,-0.74
2023-04-04T05:16:56.868Z,-0.72
2023-04-04T05:18:33.393Z,-0.70
2023-04-04T05:20:06.196Z,-0.68
2023-04-04T05:21:38.296Z,-0.64
2023-04-04T05:23:13.300Z,-0.61
2023-04-04T05:24:47.170Z,-0.59
2023-04-04T05:26:21.634Z,-0.56
2023-04-04T05:27:57.858Z,-0.52
2023-04-04T05:29:29.869Z,-0.49
2023-04-04T05:31:02.445Z,-0.45
2023-04-04T05:32:36.687Z,-0.42
2023-04-04T05:34:14.430Z,-0.36
2023-04-04T05:35:46.924Z,-0.33
2023-04-04T05:37:20.133Z,-0.27
2023-04-04T05:38:54.288Z,-0.22
2023-04-04T05:40:29.495Z,-0.18
2023-04-04T05:42:10.834Z,-0.13
2023-04-04T05:43:48.204Z,-0.09
2023-04-04T05:45:23.485Z,-0.04
2023-04-04T05:46:55.323Z,0.01
2023-04-04T05:48:27.129Z,0.06
2023-04-04T05:49:59.236Z,0.11
2023-04-04T05:51:31.140Z,0.15
2023-04-04T05:53:12.231Z,0.20
2023-04-04T05:54:51.550Z,0.24
2023-04-04T05:56:31.116Z,0.28
2023-04-04T05:58:04.355Z,0.32
2023-04-04T05:59:47.977Z,0.36
2023-04-04T06:01:21.365Z,0.39
2023-04-04T06:02:58.758Z,0.42
2023-04-04T06:04:30.868Z,0.45
2023-04-04T06:06:05.657Z,0.46
2023-04-04T06:07:38.801Z,0.47
2023-04-04T06:09:10.631Z,0.48
2023-04-04T06:10:42.510Z,0.47
2023-04-04T06:12:14.327Z,0.49
2023-04-04T06:13:46.690Z,0.48
2023-04-04T06:15:21.662Z,0.49
2023-04-04T06:16:53.455Z,0.49
2023-04-04T06:18:25.297Z,0.48
2023-04-04T06:19:57.223Z,0.49
2023-04-04T06:21:29.019Z,0.49
2023-04-04T06:23:04.713Z,0.49
2023-04-04T06:24:38.633Z,0.49
2023-04-04T06:26:10.933Z,0.49
2023-04-04T06:27:44.925Z,0.50
2023-04-04T06:29:16.906Z,0.52
2023-04-04T06:30:49.689Z,0.53
2023-04-04T06:32:32.178Z,0.55
2023-04-04T06:34:04.088Z,0.56
2023-04-04T06:35:40.613Z,0.59
2023-04-04T06:37:13.148Z,0.61
2023-04-04T06:38:53.348Z,0.63
2023-04-04T06:40:27.212Z,0.67
2023-04-04T06:41:59.548Z,0.70
2023-04-04T06:43:34.577Z,0.69
2023-04-04T06:45:06.950Z,0.69
2023-04-04T06:46:39.394Z,0.71
2023-04-04T06:48:11.265Z,0.72
2023-04-04T06:49:43.381Z,0.74
2023-04-04T06:51:16.248Z,0.75
2023-04-04T06:52:50.446Z,0.79
2023-04-04T06:54:22.340Z,0.81
2023-04-04T06:55:54.322Z,0.81
2023-04-04T06:57:27.211Z,0.82
2023-04-04T06:58:59.087Z,0.85
2023-04-04T07:00:30.993Z,0.87
2023-04-04T07:02:02.804Z,0.89
2023-04-04T07:03:34.802Z,0.93
2023-04-04T07:05:07.246Z,0.94
2023-04-04T07:06:39.062Z,0.98
2023-04-04T07:08:11.788Z,0.98
2023-04-04T07:09:43.800Z,1.00
2023-04-04T07:11:15.744Z,1.02
2023-04-04T07:12:47.575Z,1.04
2023-04-04T07:14:20.950Z,1.07
2023-04-04T07:15:52.913Z,1.11
2023-04-04T07:17:25.645Z,1.14
2023-04-04T07:18:57.598Z,1.18
2023-04-04T07:20:29.439Z,1.19
2023-04-04T07:22:01.221Z,1.23
2023-04-04T07:23:33.015Z,1.25
2023-04-04T07:25:05.086Z,1.29
2023-04-04T07:26:36.993Z,1.31
2023-04-04T07:28:12.912Z,1.36
2023-04-04T07:29:45.388Z,1.42
2023-04-04T07:31:17.338Z,1.42
2023-04-04T07:32:57.696Z,1.43
2023-04-04T07:34:30.109Z,1.45
2023-04-04T07:36:03.447Z,1.47
2023-04-04T07:37:38.480Z,1.48
2023-04-04T07:39:10.397Z,1.51
2023-04-04T07:40:42.588Z,1.54
2023-04-04T07:42:15.120Z,1.58
2023-04-04T07:43:47.418Z,1.65
2023-04-04T07:45:19.342Z,1.67
2023-04-04T07:47:02.440Z,1.71
2023-04-04T07:48:40.900Z,1.79
2023-04-04T07:50:13.529Z,1.82
2023-04-04T07:51:45.665Z,1.88
2023-04-04T07:53:17.507Z,1.89
2023-04-04T07:54:49.544Z,1.93
2023-04-04T07:56:22.036Z,2.02
2023-04-04T07:57:53.848Z,2.10
2023-04-04T07:59:25.815Z,2.15
2023-04-04T08:00:57.785Z,2.25
2023-04-04T08:02:29.706Z,2.35
2023-04-04T08:04:01.753Z,2.46
2023-04-04T08:05:34.042Z,2.56
2023-04-04T08:07:05.826Z,2.69
2023-04-04T08:08:37.696Z,2.80
2023-04-04T08:10:09.996Z,2.90
2023-04-04T08:11:41.779Z,3.00
2023-04-04T08:13:13.656Z,3.10
2023-04-04T08:14:45.457Z,3.21
2023-04-04T08:16:17.859Z,3.31
2023-04-04T08:17:50.383Z,3.39
2023-04-04T08:19:23.002Z,3.49
2023-04-04T08:20:54.782Z,3.60
2023-04-04T08:22:27.289Z,3.70
2023-04-04T08:23:59.073Z,3.79
2023-04-04T08:25:30.856Z,3.89
2023-04-04T08:27:05.573Z,4.00
2023-04-04T08:28:38.647Z,4.09
2023-04-04T08:30:11.186Z,4.18
2023-04-04T08:31:43.472Z,4.26
2023-04-04T08:33:15.304Z,4.31
2023-04-04T08:34:47.337Z,4.40
2023-04-04T08:36:19.952Z,4.51
2023-04-04T08:37:52.251Z,4.58
2023-04-04T08:39:24.079Z,4.71
2023-04-04T08:40:55.899Z,4.87
2023-04-04T08:42:30.362Z,5.05
2023-04-04T08:44:04.497Z,5.26
2023-04-04T08:45:36.657Z,5.47
2023-04-04T08:47:10.962Z,5.66
2023-04-04T08:48:44.947Z,5.89
2023-04-04T08:50:17.969Z,6.07
2023-04-04T08:53:49.508Z,6.46
2023-04-04T08:55:21.609Z,6.60
2023-04-04T08:56:53.497Z,6.75
2023-04-04T08:58:25.384Z,6.91
2023-04-04T08:59:57.936Z,7.03
2023-04-04T09:01:29.984Z,7.17
2023-04-04T09:03:20.320Z,7.31
2023-04-04T09:05:05.653Z,7.47
2023-04-04T09:06:39.318Z,7.65
2023-04-04T09:08:12.641Z,7.85
2023-04-04T09:09:47.980Z,8.00
2023-04-04T09:11:21.686Z,8.17
2023-04-04T09:12:57.313Z,8.32
2023-04-04T09:14:37.530Z,8.45
2023-04-04T09:16:09.453Z,8.56
2023-04-04T09:17:41.833Z,8.68
2023-04-04T09:19:13.661Z,8.77
2023-04-04T09:20:46.907Z,8.83
2023-04-04T09:22:19.610Z,8.90
2023-04-04T09:24:01.385Z,9.00
2023-04-04T09:25:33.331Z,9.05
2023-04-04T09:27:05.106Z,9.05
2023-04-04T09:28:37.015Z,9.04
2023-04-04T09:30:09.666Z,9.09
2023-04-04T09:31:46.878Z,9.06
2023-04-04T09:33:21.908Z,9.04
2023-04-04T09:34:54.748Z,8.99
2023-04-04T09:36:27.302Z,8.94
2023-04-04T09:37:59.650Z,8.79
2023-04-04T09:39:32.792Z,8.74
2023-04-04T09:41:09.963Z,8.67
2023-04-04T09:42:42.431Z,8.59
2023-04-04T09:44:14.297Z,8.51
2023-04-04T09:45:47.642Z,8.48
2023-04-04T09:49:01.505Z,8.51
2023-04-04T09:50:33.905Z,8.51
2023-04-04T09:52:06.197Z,8.52
2023-04-04T09:53:39.911Z,8.50
2023-04-04T09:55:11.695Z,8.49
2023-04-04T09:56:45.096Z,8.48
2023-04-04T09:58:18.753Z,8.48
2023-04-04T09:59:50.839Z,8.46
2023-04-04T10:01:24.042Z,8.43
2023-04-04T10:02:58.521Z,8.48
2023-04-04T10:04:32.481Z,8.52
2023-04-04T10:06:07.366Z,8.59
2023-04-04T10:07:40.665Z,8.66
2023-04-04T10:09:12.730Z,8.69
2023-04-04T10:11:09.475Z,8.68
2023-04-04T10:12:46.359Z,8.65
2023-04-04T10:14:18.528Z,8.60
2023-04-04T10:15:51.624Z,8.55
2023-04-04T10:17:25.485Z,8.48
2023-04-04T10:18:58.779Z,8.42
2023-04-04T10:20:32.236Z,8.40
2023-04-04T10:22:05.867Z,8.40
2023-04-04T10:23:38.793Z,8.40
2023-04-04T10:25:10.880Z,8.43
2023-04-04T10:26:42.719Z,8.47
2023-04-04T10:28:14.595Z,8.53
2023-04-04T10:29:46.817Z,8.66
2023-04-04T10:31:26.209Z,8.77
2023-04-04T10:33:06.952Z,8.91
2023-04-04T10:34:54.089Z,8.99
2023-04-04T10:36:38.641Z,9.07
2023-04-04T10:38:11.152Z,9.08
2023-04-04T10:39:56.457Z,8.94
2023-04-04T10:41:31.780Z,8.82
2023-04-04T10:43:05.530Z,8.70
2023-04-04T10:44:40.585Z,8.59
2023-04-04T10:46:16.258Z,8.52
2023-04-04T10:47:48.756Z,8.49
2023-04-04T10:49:22.692Z,8.51
2023-04-04T10:50:56.357Z,8.58
2023-04-04T10:52:29.962Z,8.65
2023-04-04T10:54:02.406Z,8.76
2023-04-04T10:55:35.675Z,8.78
2023-04-04T10:57:07.793Z,8.77
2023-04-04T10:58:41.992Z,8.72
2023-04-04T11:00:23.642Z,8.57
2023-04-04T11:02:00.453Z,8.43
2023-04-04T11:03:34.231Z,8.34
2023-04-04T11:05:26.893Z,8.18
2023-04-04T11:07:16.467Z,8.19
2023-04-04T11:08:56.319Z,8.15
2023-04-04T11:10:29.920Z,8.19
2023-04-04T11:12:08.766Z,8.22
2023-04-04T11:13:41.740Z,8.33
2023-04-04T11:15:14.832Z,8.44
2023-04-04T11:16:47.158Z,8.56
2023-04-04T11:18:33.358Z,8.73
2023-04-04T11:20:08.752Z,8.90
2023-04-04T11:21:40.710Z,8.99
2023-04-04T11:23:22.921Z,9.08
2023-04-04T11:25:01.305Z,9.21
2023-04-04T11:26:33.069Z,9.30
2023-04-04T11:28:25.743Z,9.35
2023-04-04T11:29:58.994Z,9.47
2023-04-04T11:31:41.006Z,9.50
2023-04-04T11:33:13.484Z,9.54
2023-04-04T11:34:45.600Z,9.52
2023-04-04T11:36:41.641Z,9.38
2023-04-04T11:38:16.256Z,9.34
2023-04-04T11:39:56.872Z,9.24
2023-04-04T11:41:45.255Z,9.14
2023-04-04T11:43:20.490Z,9.11
2023-04-04T11:44:52.256Z,9.10
2023-04-04T11:46:29.914Z,9.12
2023-04-04T11:48:05.154Z,9.15
2023-04-04T11:49:39.824Z,9.16
2023-04-04T11:51:12.023Z,9.15
2023-04-04T11:52:43.848Z,9.16
2023-04-04T11:54:18.581Z,9.19
2023-04-04T11:55:51.448Z,9.22
2023-04-04T11:57:23.496Z,9.24
2023-04-04T11:59:08.791Z,9.27
2023-04-04T12:00:44.314Z,9.25
2023-04-04T12:02:20.554Z,9.22
2023-04-04T12:03:52.823Z,9.18
2023-04-04T12:05:25.139Z,9.16
2023-04-04T12:06:57.152Z,9.20
2023-04-04T12:08:28.995Z,9.20
2023-04-04T12:10:01.509Z,9.25
2023-04-04T12:11:37.403Z,9.32
2023-04-04T12:13:10.171Z,9.34
2023-04-04T12:14:42.605Z,9.32
2023-04-04T12:16:14.508Z,9.31
2023-04-04T12:17:48.713Z,9.28
2023-04-04T12:19:22.800Z,9.25
2023-04-04T12:20:56.959Z,9.24
2023-04-04T12:22:35.148Z,9.30
2023-04-04T12:24:09.106Z,9.26
2023-04-04T12:25:44.415Z,9.24
2023-04-04T12:27:16.450Z,9.25
2023-04-04T12:28:49.236Z,9.23
2023-04-04T12:30:21.882Z,9.17
2023-04-04T12:31:55.653Z,9.09
2023-04-04T12:33:28.219Z,9.01
2023-04-04T12:35:01.539Z,8.92
2023-04-04T12:36:35.514Z,8.78
2023-04-04T12:38:08.564Z,8.64
2023-04-04T12:39:46.511Z,8.48
2023-04-04T12:41:19.823Z,8.31
2023-04-04T12:42:52.124Z,8.21
2023-04-04T12:44:36.266Z,8.06
2023-04-04T12:46:08.542Z,8.05
2023-04-04T12:47:52.174Z,8.01
2023-04-04T12:49:24.256Z,8.06
2023-04-04T12:50:58.203Z,8.07
2023-04-04T12:52:32.675Z,8.09
2023-04-04T12:54:06.842Z,8.13
2023-04-04T12:55:38.875Z,8.17
2023-04-04T12:57:12.759Z,8.23
2023-04-04T12:58:48.514Z,8.32
2023-04-04T13:00:21.832Z,8.37
2023-04-04T13:01:53.943Z,8.42
2023-04-04T13:03:27.773Z,8.43
2023-04-04T13:05:00.290Z,8.42
2023-04-04T13:06:33.401Z,8.40
2023-04-04T13:08:07.421Z,8.37
2023-04-04T13:09:52.744Z,8.29
2023-04-04T13:11:25.087Z,8.30
2023-04-04T13:13:02.583Z,8.27
2023-04-04T13:15:00.260Z,8.24
2023-04-04T13:16:37.370Z,8.26
2023-04-04T13:18:18.293Z,8.27
2023-04-04T13:19:50.673Z,8.31
2023-04-04T13:21:23.184Z,8.30
2023-04-04T13:22:58.528Z,8.28
2023-04-04T13:24:30.536Z,8.24
2023-04-04T13:26:04.364Z,8.20
2023-04-04T13:27:36.910Z,8.17
2023-04-04T13:29:08.689Z,8.15
2023-04-04T13:30:49.918Z,8.14
2023-04-04T13:32:22.405Z,8.16
2023-04-04T13:33:54.214Z,8.17
2023-04-04T13:35:27.220Z,8.21
2023-04-04T13:36:59.060Z,8.25
2023-04-04T13:38:30.917Z,8.31
2023-04-04T13:40:02.711Z,8.41
2023-04-04T13:41:34.518Z,8.49
2023-04-04T13:43:06.779Z,8.61
2023-04-04T13:44:38.562Z,8.75
2023-04-04T13:46:10.533Z,8.89
2023-04-04T13:47:42.379Z,9.03
2023-04-04T13:49:14.400Z,9.17
2023-04-04T13:50:51.491Z,9.29
2023-04-04T13:52:23.952Z,9.41
2023-04-04T13:53:55.957Z,9.51
2023-04-04T13:55:28.121Z,9.57
2023-04-04T13:56:59.915Z,9.63
2023-04-04T13:58:31.694Z,9.68
2023-04-04T14:00:05.753Z,9.74
2023-04-04T14:01:41.531Z,9.74
2023-04-04T14:03:13.440Z,9.71
2023-04-04T14:04:45.339Z,9.65
2023-04-04T14:06:17.218Z,9.57
2023-04-04T14:07:49.167Z,9.51
2023-04-04T14:09:21.050Z,9.44
2023-04-04T14:10:52.850Z,9.38
2023-04-04T14:12:24.624Z,9.35
2023-04-04T14:13:56.721Z,9.35
2023-04-04T14:15:29.158Z,9.40
2023-04-04T14:17:01.144Z,9.48
2023-04-04T14:18:34.638Z,9.58
2023-04-04T14:20:08.060Z,9.65
2023-04-04T14:21:39.920Z,9.72
2023-04-04T14:23:11.689Z,9.81
2023-04-04T14:24:43.453Z,9.90
2023-04-04T14:26:16.150Z,10.01
2023-04-04T14:27:48.059Z,10.12
2023-04-04T14:29:19.867Z,10.22
2023-04-04T14:30:51.889Z,10.26
2023-04-04T14:32:23.864Z,10.27
2023-04-04T14:33:55.661Z,10.25
2023-04-04T14:35:27.417Z,10.17
2023-04-04T14:36:59.814Z,10.06
2023-04-04T14:38:32.102Z,10.00
2023-04-04T14:40:05.567Z,9.89
2023-04-04T14:41:37.354Z,9.88
2023-04-04T14:43:09.751Z,9.76
2023-04-04T14:44:42.424Z,9.67
2023-04-04T14:46:14.229Z,9.62
2023-04-04T14:47:46.210Z,9.52
2023-04-04T14:49:18.161Z,9.42
2023-04-04T14:50:49.959Z,9.34
2023-04-04T14:52:21.827Z,9.32
2023-04-04T14:53:53.821Z,9.29
2023-04-04T14:55:25.684Z,9.29
2023-04-04T14:56:58.173Z,9.32
2023-04-04T14:58:29.979Z,9.42
2023-04-04T15:00:01.781Z,9.52
2023-04-04T15:01:33.695Z,9.68
2023-04-04T15:03:07.347Z,9.77
2023-04-04T15:04:39.645Z,9.91
2023-04-04T15:06:11.647Z,10.09
2023-04-04T15:07:46.459Z,10.30
2023-04-04T15:09:18.252Z,10.42
2023-04-04T15:10:50.044Z,10.48
2023-04-04T15:12:21.857Z,10.53
2023-04-04T15:13:53.693Z,10.62
2023-04-04T15:15:26.777Z,10.71
2023-04-04T15:16:58.655Z,10.78
2023-04-04T15:18:30.594Z,10.80
2023-04-04T15:20:02.541Z,10.79
2023-04-04T15:21:34.323Z,10.71
2023-04-04T15:23:06.610Z,10.58
2023-04-04T15:24:38.660Z,10.50
2023-04-04T15:26:10.877Z,10.41
2023-04-04T15:27:42.681Z,10.39
2023-04-04T15:29:15.828Z,10.44
2023-04-04T15:30:47.626Z,10.50
2023-04-04T15:32:19.426Z,10.58
2023-04-04T15:33:51.228Z,10.67
2023-04-04T15:35:23.392Z,10.75
2023-04-04T15:36:57.994Z,10.87
2023-04-04T15:38:29.890Z,11.01
2023-04-04T15:40:01.671Z,11.15
2023-04-04T15:41:33.620Z,11.27
2023-04-04T15:43:06.059Z,11.39
2023-04-04T15:44:37.870Z,11.57
2023-04-04T15:46:09.672Z,11.69
2023-04-04T15:47:42.626Z,11.79
2023-04-04T15:49:15.241Z,11.94
2023-04-04T15:50:47.028Z,12.03
2023-04-04T15:52:18.821Z,12.14
2023-04-04T15:53:54.409Z,12.24
2023-04-04T15:55:27.345Z,12.34
2023-04-04T15:56:59.157Z,12.37
2023-04-04T15:58:31.144Z,12.37
2023-04-04T16:00:03.694Z,12.39
2023-04-04T16:01:40.979Z,12.35
2023-04-04T16:03:14.583Z,12.30
2023-04-04T16:04:46.465Z,12.20
2023-04-04T16:06:18.287Z,12.04
2023-04-04T16:07:50.084Z,11.85
2023-04-04T16:09:21.964Z,11.60
2023-04-04T16:10:53.794Z,11.34
2023-04-04T16:12:26.201Z,11.09
2023-04-04T16:13:58.206Z,10.86
2023-04-04T16:15:30.179Z,10.68
2023-04-04T16:17:05.492Z,10.51
2023-04-04T16:18:37.502Z,10.34
2023-04-04T16:20:09.869Z,10.15
2023-04-04T16:21:42.120Z,9.94
2023-04-04T16:23:14.481Z,9.76
2023-04-04T16:24:46.424Z,9.60
2023-04-04T16:26:18.248Z,9.43
2023-04-04T16:27:50.008Z,9.26
2023-04-04T16:29:21.887Z,9.14
2023-04-04T16:30:53.824Z,9.01
2023-04-04T16:32:25.758Z,8.89
2023-04-04T16:33:58.833Z,8.78
2023-04-04T16:35:32.784Z,8.67
2023-04-04T16:37:04.602Z,8.56
2023-04-04T16:38:36.425Z,8.46
2023-04-04T16:40:08.813Z,8.35
2023-04-04T16:41:41.164Z,8.21
2023-04-04T16:43:13.024Z,8.04
2023-04-04T16:44:47.058Z,7.91
2023-04-04T16:46:19.482Z,7.76
2023-04-04T16:47:51.822Z,7.62
2023-04-04T16:49:23.753Z,7.46
2023-04-04T16:50:56.547Z,7.30
2023-04-04T16:52:28.419Z,7.16
2023-04-04T16:54:00.263Z,7.02
2023-04-04T16:55:32.063Z,6.89
2023-04-04T16:57:03.908Z,6.76
2023-04-04T16:58:35.934Z,6.62
2023-04-04T17:00:10.173Z,6.49
2023-04-04T17:01:42.024Z,6.37
2023-04-04T17:03:13.903Z,6.26
2023-04-04T17:04:45.855Z,6.14
2023-04-04T17:06:17.910Z,6.05
2023-04-04T17:07:49.743Z,5.94
2023-04-04T17:09:21.927Z,5.85
2023-04-04T17:10:54.003Z,5.75
2023-04-04T17:12:25.808Z,5.67
2023-04-04T17:13:58.240Z,5.59
2023-04-04T17:15:30.349Z,5.51
2023-04-04T17:17:02.257Z,5.43
2023-04-04T17:18:34.496Z,5.36
2023-04-04T17:20:06.903Z,5.29
2023-04-04T17:21:38.761Z,5.23
2023-04-04T17:23:11.132Z,5.16
2023-04-04T17:24:43.128Z,5.09
2023-04-04T17:26:14.940Z,5.03
2023-04-04T17:27:46.892Z,4.98
2023-04-04T17:29:20.874Z,4.93
2023-04-04T17:30:52.929Z,4.88
2023-04-04T17:32:24.722Z,4.82
2023-04-04T17:33:56.578Z,4.78
2023-04-04T17:35:28.448Z,4.73
2023-04-04T17:37:00.298Z,4.68
2023-04-04T17:38:32.141Z,4.65
2023-04-04T17:40:05.544Z,4.59
2023-04-04T17:41:37.871Z,4.55
2023-04-04T17:43:09.700Z,4.51
2023-04-04T17:44:41.536Z,4.47
2023-04-04T17:46:13.473Z,4.45
2023-04-04T17:47:46.375Z,4.42
2023-04-04T17:49:20.361Z,4.38
2023-04-04T17:50:53.243Z,4.33
2023-04-04T17:52:25.073Z,4.29
2023-04-04T17:53:56.882Z,4.26
2023-04-04T17:55:29.447Z,4.22
2023-04-04T17:57:03.490Z,4.19
2023-04-04T17:58:35.573Z,4.15
2023-04-04T18:00:08.041Z,4.12
2023-04-04T18:01:40.880Z,4.08
2023-04-04T18:03:13.180Z,4.05
2023-04-04T18:04:47.319Z,4.02
2023-04-04T18:06:19.359Z,3.99
2023-04-04T18:07:51.416Z,3.96
2023-04-04T18:09:23.587Z,3.91
2023-04-04T18:10:57.682Z,3.86
2023-04-04T18:12:30.515Z,3.85
2023-04-04T18:14:04.117Z,3.82
2023-04-04T18:15:36.262Z,3.77
2023-04-04T18:17:09.141Z,3.75
2023-04-04T18:18:41.190Z,3.71
2023-04-04T18:20:18.464Z,3.68
2023-04-04T18:22:02.680Z,3.65
2023-04-04T18:23:34.488Z,3.61
2023-04-04T18:25:07.449Z,3.57
2023-04-04T18:26:39.510Z,3.53
2023-04-04T18:28:11.430Z,3.51
2023-04-04T18:29:43.330Z,3.47
2023-04-04T18:31:15.442Z,3.46
2023-04-04T18:32:48.343Z,3.43
2023-04-04T18:34:20.243Z,3.42
2023-04-04T18:35:54.162Z,3.40
2023-04-04T18:37:26.498Z,3.37
2023-04-04T18:38:58.362Z,3.36
2023-04-04T18:40:30.161Z,3.34
2023-04-04T18:42:03.234Z,3.33
2023-04-04T18:43:35.715Z,3.31
2023-04-04T18:45:08.398Z,3.27
2023-04-04T18:46:40.668Z,3.27
2023-04-04T18:48:12.969Z,3.26
2023-04-04T18:49:44.769Z,3.25
2023-04-04T18:51:17.634Z,3.23
2023-04-04T18:52:49.563Z,3.20
2023-04-04T18:54:21.446Z,3.20
2023-04-04T18:55:53.563Z,3.20
2023-04-04T18:57:26.045Z,3.17
2023-04-04T18:58:57.906Z,3.16
2023-04-04T19:00:29.807Z,3.15
2023-04-04T19:02:01.856Z,3.15
2023-04-04T19:03:42.010Z,3.13
2023-04-04T19:05:20.915Z,3.12
2023-04-04T19:06:53.780Z,3.12
2023-04-04T19:08:26.536Z,3.11
2023-04-04T19:09:59.838Z,3.10
2023-04-04T19:11:32.190Z,3.09
2023-04-04T19:13:04.326Z,3.08
2023-04-04T19:14:36.178Z,3.08
2023-04-04T19:16:08.408Z,3.05
2023-04-04T19:17:40.555Z,3.06
2023-04-04T19:19:12.393Z,3.05
2023-04-04T19:20:44.213Z,3.02
2023-04-04T19:22:16.074Z,3.01
2023-04-04T19:23:48.055Z,3.00
2023-04-04T19:25:20.584Z,3.00
2023-04-04T19:26:52.707Z,2.98
2023-04-04T19:28:24.633Z,2.96
2023-04-04T19:29:56.611Z,2.95
2023-04-04T19:31:33.047Z,2.93
2023-04-04T19:33:09.494Z,2.92
2023-04-04T19:34:44.571Z,2.91
2023-04-04T19:36:17.260Z,2.90
2023-04-04T19:37:49.104Z,2.88
2023-04-04T19:39:23.306Z,2.86
2023-04-04T19:40:57.151Z,2.83
2023-04-04T19:42:30.597Z,2.82
2023-04-04T19:44:04.045Z,2.79
2023-04-04T19:45:54.169Z,2.73
2023-04-04T19:47:26.201Z,2.74
2023-04-04T19:48:59.483Z,2.73
2023-04-04T19:50:35.538Z,2.69
2023-04-04T19:52:09.133Z,2.67
2023-04-04T19:53:42.504Z,2.65
2023-04-04T19:55:37.947Z,2.60
2023-04-04T19:57:19.605Z,2.56
2023-04-04T19:59:01.932Z,2.55
2023-04-04T20:00:33.789Z,2.52
2023-04-04T20:02:07.201Z,2.48
2023-04-04T20:03:40.268Z,2.44
2023-04-04T20:05:32.466Z,2.36
2023-04-04T20:07:04.606Z,2.35
2023-04-04T20:08:39.362Z,2.30
2023-04-04T20:10:11.213Z,2.24
2023-04-04T20:11:42.990Z,2.20
2023-04-04T20:13:14.877Z,2.15
2023-04-04T20:14:46.665Z,2.09
2023-04-04T20:16:18.574Z,2.03
2023-04-04T20:17:50.464Z,1.98
2023-04-04T20:19:27.930Z,1.93
2023-04-04T20:21:03.883Z,1.88
2023-04-04T20:22:35.944Z,1.82
2023-04-04T20:24:08.894Z,1.75
2023-04-04T20:25:42.622Z,1.69
2023-04-04T20:27:24.212Z,1.60
2023-04-04T20:28:56.041Z,1.54
2023-04-04T20:30:27.847Z,1.49
2023-04-04T20:32:01.776Z,1.44
2023-04-04T20:33:36.910Z,1.40
2023-04-04T20:35:28.277Z,1.32
2023-04-04T20:37:05.392Z,1.31
2023-04-04T20:38:41.790Z,1.24
2023-04-04T20:40:34.166Z,1.21
2023-04-04T20:42:38.272Z,1.13